Perlee, Iowa
Current Conditions -  °F | °C
As of 7:35 PM on Tuesday 21 Oct 2014 (Local Time) from KFFL Reporting Station
Clear Clear  
Wind Chill: 45°   Ceiling: Unl
Heat Index: 48°   Visibility: NA
Dew Point: 39°   Wind: 7mph
Humidity: 71%   Direction: 80°E
Pressure: 30.18"   Gusts: NA
Location:  40.9879°N, 91.8924°W
Report Text: KFFL 220035Z AUTO 08006KT CLR 09/04 A3018 RMK AO2
Loading
Personal Weather Stations






























Interactive Weather Map
Tropical Storm Tracking
New forecast layout! Learn more

10-Day Weather Forecast

Advertisements
Track Severe Weather on mobile